sensor_id;sensor_type;location;lat;lon;timestamp;P1;durP1;ratioP1;P2;durP2;ratioP2
48375;SDS011;34178;50.904;11.560;2023-03-03T00:01:27;99.60;;;36.90;;
48375;SDS011;34178;50.904;11.560;2023-03-03T00:03:54;99.38;;;38.38;;
48375;SDS011;34178;50.904;11.560;2023-03-03T00:06:20;102.85;;;38.10;;
48375;SDS011;34178;50.904;11.560;2023-03-03T00:08:46;99.93;;;37.17;;
48375;SDS011;34178;50.904;11.560;2023-03-03T00:11:11;98.10;;;37.75;;
48375;SDS011;34178;50.904;11.560;2023-03-03T00:13:40;104.90;;;37.25;;
48375;SDS011;34178;50.904;11.560;2023-03-03T00:16:15;104.47;;;37.55;;
48375;SDS011;34178;50.904;11.560;2023-03-03T00:18:47;91.95;;;36.03;;
48375;SDS011;34178;50.904;11.560;2023-03-03T00:21:21;99.10;;;37.03;;
48375;SDS011;34178;50.904;11.560;2023-03-03T00:23:47;109.55;;;39.05;;
48375;SDS011;34178;50.904;11.560;2023-03-03T00:28:53;100.35;;;36.10;;
48375;SDS011;34178;50.904;11.560;2023-03-03T00:31:32;100.53;;;37.38;;
48375;SDS011;34178;50.904;11.560;2023-03-03T00:34:44;96.20;;;34.78;;
48375;SDS011;34178;50.904;11.560;2023-03-03T00:36:55;98.13;;;35.47;;
48375;SDS011;34178;50.904;11.560;2023-03-03T00:39:29;98.88;;;36.05;;
48375;SDS011;34178;50.904;11.560;2023-03-03T00:42:14;103.55;;;36.65;;
48375;SDS011;34178;50.904;11.560;2023-03-03T00:49:51;94.80;;;34.28;;
48375;SDS011;34178;50.904;11.560;2023-03-03T00:52:19;91.65;;;33.17;;
48375;SDS011;34178;50.904;11.560;2023-03-03T00:54:45;91.82;;;33.70;;
48375;SDS011;34178;50.904;11.560;2023-03-03T00:57:11;88.75;;;33.05;;
48375;SDS011;34178;50.904;11.560;2023-03-03T00:59:37;84.90;;;32.72;;
48375;SDS011;34178;50.904;11.560;2023-03-03T01:02:03;88.13;;;33.00;;
48375;SDS011;34178;50.904;11.560;2023-03-03T01:04:29;81.10;;;32.17;;
48375;SDS011;34178;50.904;11.560;2023-03-03T01:06:55;84.72;;;32.35;;
48375;SDS011;34178;50.904;11.560;2023-03-03T01:09:20;82.47;;;30.73;;
48375;SDS011;34178;50.904;11.560;2023-03-03T01:11:46;78.30;;;31.20;;
48375;SDS011;34178;50.904;11.560;2023-03-03T01:14:12;88.30;;;32.53;;
48375;SDS011;34178;50.904;11.560;2023-03-03T01:16:38;80.00;;;32.17;;
48375;SDS011;34178;50.904;11.560;2023-03-03T01:19:05;77.10;;;29.10;;
48375;SDS011;34178;50.904;11.560;2023-03-03T01:21:31;83.53;;;32.83;;
48375;SDS011;34178;50.904;11.560;2023-03-03T01:23:57;78.50;;;31.23;;
48375;SDS011;34178;50.904;11.560;2023-03-03T01:26:23;76.68;;;30.67;;
48375;SDS011;34178;50.904;11.560;2023-03-03T01:28:49;76.95;;;31.75;;
48375;SDS011;34178;50.904;11.560;2023-03-03T01:31:14;73.90;;;29.65;;
48375;SDS011;34178;50.904;11.560;2023-03-03T01:33:40;76.07;;;28.65;;
48375;SDS011;34178;50.904;11.560;2023-03-03T01:36:06;84.15;;;29.45;;
48375;SDS011;34178;50.904;11.560;2023-03-03T01:38:34;82.43;;;30.38;;
48375;SDS011;34178;50.904;11.560;2023-03-03T01:41:01;86.35;;;31.02;;
48375;SDS011;34178;50.904;11.560;2023-03-03T01:43:28;81.28;;;30.60;;
48375;SDS011;34178;50.904;11.560;2023-03-03T01:50:51;74.25;;;29.42;;
48375;SDS011;34178;50.904;11.560;2023-03-03T01:56:13;72.63;;;26.70;;
48375;SDS011;34178;50.904;11.560;2023-03-03T01:58:46;81.53;;;30.20;;
48375;SDS011;34178;50.904;11.560;2023-03-03T02:01:21;74.40;;;26.63;;
48375;SDS011;34178;50.904;11.560;2023-03-03T02:03:48;68.22;;;25.70;;
48375;SDS011;34178;50.904;11.560;2023-03-03T02:06:15;66.97;;;26.63;;
48375;SDS011;34178;50.904;11.560;2023-03-03T02:08:53;67.18;;;26.92;;
48375;SDS011;34178;50.904;11.560;2023-03-03T02:11:26;73.55;;;28.10;;
48375;SDS011;34178;50.904;11.560;2023-03-03T02:13:54;67.20;;;26.70;;
48375;SDS011;34178;50.904;11.560;2023-03-03T02:16:19;64.70;;;24.90;;
48375;SDS011;34178;50.904;11.560;2023-03-03T02:18:45;69.95;;;27.40;;
48375;SDS011;34178;50.904;11.560;2023-03-03T02:21:12;65.35;;;26.38;;
48375;SDS011;34178;50.904;11.560;2023-03-03T02:23:51;61.67;;;25.40;;
48375;SDS011;34178;50.904;11.560;2023-03-03T02:26:24;64.45;;;24.27;;
48375;SDS011;34178;50.904;11.560;2023-03-03T02:28:52;60.92;;;24.95;;
48375;SDS011;34178;50.904;11.560;2023-03-03T02:31:21;59.35;;;25.67;;
48375;SDS011;34178;50.904;11.560;2023-03-03T02:33:50;62.78;;;25.10;;
48375;SDS011;34178;50.904;11.560;2023-03-03T02:46:23;53.47;;;22.48;;
48375;SDS011;34178;50.904;11.560;2023-03-03T02:48:48;52.45;;;21.58;;
48375;SDS011;34178;50.904;11.560;2023-03-03T02:51:14;56.67;;;23.23;;
48375;SDS011;34178;50.904;11.560;2023-03-03T02:53:40;61.60;;;22.70;;
48375;SDS011;34178;50.904;11.560;2023-03-03T02:56:06;53.55;;;22.77;;
48375;SDS011;34178;50.904;11.560;2023-03-03T02:58:33;59.35;;;23.85;;
48375;SDS011;34178;50.904;11.560;2023-03-03T03:01:00;58.25;;;22.15;;
48375;SDS011;34178;50.904;11.560;2023-03-03T03:03:26;51.55;;;21.40;;
48375;SDS011;34178;50.904;11.560;2023-03-03T03:05:52;60.88;;;24.00;;
48375;SDS011;34178;50.904;11.560;2023-03-03T03:08:17;55.25;;;23.02;;
48375;SDS011;34178;50.904;11.560;2023-03-03T03:10:43;55.53;;;21.60;;
48375;SDS011;34178;50.904;11.560;2023-03-03T03:13:08;58.63;;;23.17;;
48375;SDS011;34178;50.904;11.560;2023-03-03T03:15:35;59.33;;;23.23;;
48375;SDS011;34178;50.904;11.560;2023-03-03T03:18:00;60.92;;;23.90;;
48375;SDS011;34178;50.904;11.560;2023-03-03T03:20:26;60.67;;;23.02;;
48375;SDS011;34178;50.904;11.560;2023-03-03T03:22:52;56.65;;;23.00;;
48375;SDS011;34178;50.904;11.560;2023-03-03T03:25:17;62.58;;;24.30;;
48375;SDS011;34178;50.904;11.560;2023-03-03T03:27:43;59.42;;;22.80;;
48375;SDS011;34178;50.904;11.560;2023-03-03T03:30:09;61.63;;;24.00;;
48375;SDS011;34178;50.904;11.560;2023-03-03T03:32:35;55.30;;;23.48;;
48375;SDS011;34178;50.904;11.560;2023-03-03T03:35:01;69.43;;;24.40;;
48375;SDS011;34178;50.904;11.560;2023-03-03T03:37:27;56.58;;;23.70;;
48375;SDS011;34178;50.904;11.560;2023-03-03T03:39:52;57.63;;;22.85;;
48375;SDS011;34178;50.904;11.560;2023-03-03T03:42:18;52.67;;;23.17;;
48375;SDS011;34178;50.904;11.560;2023-03-03T03:44:44;61.72;;;24.15;;
48375;SDS011;34178;50.904;11.560;2023-03-03T03:47:09;58.70;;;23.75;;
48375;SDS011;34178;50.904;11.560;2023-03-03T03:49:35;59.53;;;23.92;;
48375;SDS011;34178;50.904;11.560;2023-03-03T03:52:01;59.35;;;23.58;;
48375;SDS011;34178;50.904;11.560;2023-03-03T03:54:26;47.58;;;21.40;;
48375;SDS011;34178;50.904;11.560;2023-03-03T03:56:52;53.33;;;21.98;;
48375;SDS011;34178;50.904;11.560;2023-03-03T03:59:19;55.53;;;20.90;;
48375;SDS011;34178;50.904;11.560;2023-03-03T04:01:45;54.75;;;22.05;;
48375;SDS011;34178;50.904;11.560;2023-03-03T04:04:12;53.75;;;22.27;;
48375;SDS011;34178;50.904;11.560;2023-03-03T04:06:38;48.63;;;21.85;;
48375;SDS011;34178;50.904;11.560;2023-03-03T04:09:03;50.15;;;21.35;;
48375;SDS011;34178;50.904;11.560;2023-03-03T04:11:29;46.35;;;20.73;;
48375;SDS011;34178;50.904;11.560;2023-03-03T04:13:55;47.60;;;20.63;;
48375;SDS011;34178;50.904;11.560;2023-03-03T04:16:21;49.17;;;21.42;;
48375;SDS011;34178;50.904;11.560;2023-03-03T04:18:46;51.80;;;20.38;;
48375;SDS011;34178;50.904;11.560;2023-03-03T04:21:13;50.22;;;21.60;;
48375;SDS011;34178;50.904;11.560;2023-03-03T04:23:39;52.15;;;20.55;;
48375;SDS011;34178;50.904;11.560;2023-03-03T04:26:05;51.05;;;20.90;;
48375;SDS011;34178;50.904;11.560;2023-03-03T04:28:31;45.70;;;20.50;;
48375;SDS011;34178;50.904;11.560;2023-03-03T04:30:57;48.78;;;19.52;;
48375;SDS011;34178;50.904;11.560;2023-03-03T04:33:23;43.67;;;19.42;;
48375;SDS011;34178;50.904;11.560;2023-03-03T04:35:48;42.95;;;18.90;;
48375;SDS011;34178;50.904;11.560;2023-03-03T04:38:15;48.10;;;20.08;;
48375;SDS011;34178;50.904;11.560;2023-03-03T04:40:41;42.67;;;20.08;;
48375;SDS011;34178;50.904;11.560;2023-03-03T04:43:07;44.92;;;19.58;;
48375;SDS011;34178;50.904;11.560;2023-03-03T04:45:34;43.83;;;18.70;;
48375;SDS011;34178;50.904;11.560;2023-03-03T04:47:59;49.88;;;20.63;;
48375;SDS011;34178;50.904;11.560;2023-03-03T04:50:25;42.42;;;18.90;;
48375;SDS011;34178;50.904;11.560;2023-03-03T04:52:51;48.20;;;20.98;;
48375;SDS011;34178;50.904;11.560;2023-03-03T04:55:17;52.53;;;23.15;;
48375;SDS011;34178;50.904;11.560;2023-03-03T04:57:43;57.65;;;24.65;;
48375;SDS011;34178;50.904;11.560;2023-03-03T05:00:09;54.95;;;22.92;;
48375;SDS011;34178;50.904;11.560;2023-03-03T05:02:37;61.58;;;23.75;;
48375;SDS011;34178;50.904;11.560;2023-03-03T05:05:04;58.42;;;23.98;;
48375;SDS011;34178;50.904;11.560;2023-03-03T05:07:31;60.90;;;23.58;;
48375;SDS011;34178;50.904;11.560;2023-03-03T05:09:57;54.60;;;23.65;;
48375;SDS011;34178;50.904;11.560;2023-03-03T05:12:23;55.30;;;22.15;;
48375;SDS011;34178;50.904;11.560;2023-03-03T05:14:48;56.58;;;24.08;;
48375;SDS011;34178;50.904;11.560;2023-03-03T05:17:14;57.80;;;24.02;;
48375;SDS011;34178;50.904;11.560;2023-03-03T05:19:40;56.65;;;23.13;;
48375;SDS011;34178;50.904;11.560;2023-03-03T05:22:06;57.83;;;23.77;;
48375;SDS011;34178;50.904;11.560;2023-03-03T05:24:31;63.90;;;24.60;;
48375;SDS011;34178;50.904;11.560;2023-03-03T05:26:57;46.90;;;19.48;;
48375;SDS011;34178;50.904;11.560;2023-03-03T05:29:22;40.28;;;16.02;;
48375;SDS011;34178;50.904;11.560;2023-03-03T05:31:48;36.85;;;16.60;;
48375;SDS011;34178;50.904;11.560;2023-03-03T05:34:14;40.10;;;16.58;;
48375;SDS011;34178;50.904;11.560;2023-03-03T05:36:40;34.55;;;16.08;;
48375;SDS011;34178;50.904;11.560;2023-03-03T05:39:05;40.00;;;17.27;;
48375;SDS011;34178;50.904;11.560;2023-03-03T05:41:31;44.47;;;20.90;;
48375;SDS011;34178;50.904;11.560;2023-03-03T05:44:00;40.80;;;16.03;;
48375;SDS011;34178;50.904;11.560;2023-03-03T05:46:26;40.50;;;16.95;;
48375;SDS011;34178;50.904;11.560;2023-03-03T05:48:52;42.28;;;16.50;;
48375;SDS011;34178;50.904;11.560;2023-03-03T05:51:18;55.95;;;34.22;;
48375;SDS011;34178;50.904;11.560;2023-03-03T05:53:43;41.28;;;18.20;;
48375;SDS011;34178;50.904;11.560;2023-03-03T05:56:09;36.40;;;15.73;;
48375;SDS011;34178;50.904;11.560;2023-03-03T05:58:35;39.30;;;16.08;;
48375;SDS011;34178;50.904;11.560;2023-03-03T06:01:01;40.03;;;16.70;;
48375;SDS011;34178;50.904;11.560;2023-03-03T06:03:26;35.05;;;15.90;;
48375;SDS011;34178;50.904;11.560;2023-03-03T06:05:52;39.85;;;15.80;;
48375;SDS011;34178;50.904;11.560;2023-03-03T06:08:18;37.10;;;16.38;;
48375;SDS011;34178;50.904;11.560;2023-03-03T06:10:43;39.50;;;15.95;;
48375;SDS011;34178;50.904;11.560;2023-03-03T06:13:09;39.13;;;15.68;;
48375;SDS011;34178;50.904;11.560;2023-03-03T06:15:35;36.60;;;15.02;;
48375;SDS011;34178;50.904;11.560;2023-03-03T06:18:00;33.10;;;14.13;;
48375;SDS011;34178;50.904;11.560;2023-03-03T06:20:26;33.38;;;13.77;;
48375;SDS011;34178;50.904;11.560;2023-03-03T06:22:52;34.25;;;13.70;;
48375;SDS011;34178;50.904;11.560;2023-03-03T06:25:17;25.05;;;11.55;;
48375;SDS011;34178;50.904;11.560;2023-03-03T06:27:43;25.55;;;11.18;;
48375;SDS011;34178;50.904;11.560;2023-03-03T06:30:09;26.98;;;11.30;;
48375;SDS011;34178;50.904;11.560;2023-03-03T06:32:35;28.20;;;11.60;;
48375;SDS011;34178;50.904;11.560;2023-03-03T06:35:01;24.75;;;11.13;;
48375;SDS011;34178;50.904;11.560;2023-03-03T06:37:26;28.48;;;12.40;;
48375;SDS011;34178;50.904;11.560;2023-03-03T06:39:52;26.35;;;11.40;;
48375;SDS011;34178;50.904;11.560;2023-03-03T06:42:18;26.65;;;11.70;;
48375;SDS011;34178;50.904;11.560;2023-03-03T06:44:45;26.52;;;12.00;;
48375;SDS011;34178;50.904;11.560;2023-03-03T06:47:10;24.63;;;10.75;;
48375;SDS011;34178;50.904;11.560;2023-03-03T06:49:36;25.02;;;10.50;;
48375;SDS011;34178;50.904;11.560;2023-03-03T06:52:10;27.58;;;10.82;;
48375;SDS011;34178;50.904;11.560;2023-03-03T06:54:38;25.83;;;11.35;;
48375;SDS011;34178;50.904;11.560;2023-03-03T06:57:13;24.27;;;10.50;;
48375;SDS011;34178;50.904;11.560;2023-03-03T06:59:48;23.70;;;10.60;;
48375;SDS011;34178;50.904;11.560;2023-03-03T07:02:17;21.38;;;9.57;;
48375;SDS011;34178;50.904;11.560;2023-03-03T07:04:44;19.20;;;8.77;;
48375;SDS011;34178;50.904;11.560;2023-03-03T07:07:18;21.02;;;8.68;;
48375;SDS011;34178;50.904;11.560;2023-03-03T07:09:47;20.38;;;9.27;;
48375;SDS011;34178;50.904;11.560;2023-03-03T07:12:15;22.33;;;9.93;;
48375;SDS011;34178;50.904;11.560;2023-03-03T07:14:47;19.55;;;8.77;;
48375;SDS011;34178;50.904;11.560;2023-03-03T07:17:20;19.13;;;8.18;;
48375;SDS011;34178;50.904;11.560;2023-03-03T07:19:47;18.15;;;8.02;;
48375;SDS011;34178;50.904;11.560;2023-03-03T07:22:24;19.48;;;8.00;;
48375;SDS011;34178;50.904;11.560;2023-03-03T07:24:56;18.35;;;8.13;;
48375;SDS011;34178;50.904;11.560;2023-03-03T07:27:28;16.50;;;7.03;;
48375;SDS011;34178;50.904;11.560;2023-03-03T07:30:08;18.92;;;7.72;;
48375;SDS011;34178;50.904;11.560;2023-03-03T07:38:00;16.55;;;7.65;;
48375;SDS011;34178;50.904;11.560;2023-03-03T07:40:36;15.85;;;7.50;;
48375;SDS011;34178;50.904;11.560;2023-03-03T07:45:54;18.83;;;10.13;;
48375;SDS011;34178;50.904;11.560;2023-03-03T07:48:29;22.30;;;9.82;;
48375;SDS011;34178;50.904;11.560;2023-03-03T07:51:00;19.55;;;7.93;;
48375;SDS011;34178;50.904;11.560;2023-03-03T07:53:30;16.10;;;7.38;;
48375;SDS011;34178;50.904;11.560;2023-03-03T07:55:59;15.93;;;7.18;;
48375;SDS011;34178;50.904;11.560;2023-03-03T07:58:35;17.55;;;7.35;;
48375;SDS011;34178;50.904;11.560;2023-03-03T08:03:59;15.88;;;7.28;;
48375;SDS011;34178;50.904;11.560;2023-03-03T08:11:36;15.98;;;7.53;;
48375;SDS011;34178;50.904;11.560;2023-03-03T08:14:29;13.05;;;6.57;;
48375;SDS011;34178;50.904;11.560;2023-03-03T08:16:57;15.77;;;7.32;;
48375;SDS011;34178;50.904;11.560;2023-03-03T08:19:23;13.75;;;6.90;;
48375;SDS011;34178;50.904;11.560;2023-03-03T08:21:50;13.30;;;6.53;;
48375;SDS011;34178;50.904;11.560;2023-03-03T08:24:16;14.30;;;6.60;;
48375;SDS011;34178;50.904;11.560;2023-03-03T08:26:42;13.45;;;7.30;;
48375;SDS011;34178;50.904;11.560;2023-03-03T08:29:09;14.10;;;6.57;;
48375;SDS011;34178;50.904;11.560;2023-03-03T08:31:36;13.32;;;5.90;;
48375;SDS011;34178;50.904;11.560;2023-03-03T08:34:01;13.85;;;6.00;;
48375;SDS011;34178;50.904;11.560;2023-03-03T08:36:28;12.57;;;5.72;;
48375;SDS011;34178;50.904;11.560;2023-03-03T08:38:54;14.45;;;6.72;;
48375;SDS011;34178;50.904;11.560;2023-03-03T08:41:20;12.93;;;6.07;;
48375;SDS011;34178;50.904;11.560;2023-03-03T08:43:46;14.20;;;6.47;;
48375;SDS011;34178;50.904;11.560;2023-03-03T08:46:11;11.43;;;5.65;;
48375;SDS011;34178;50.904;11.560;2023-03-03T08:48:37;12.70;;;5.45;;
48375;SDS011;34178;50.904;11.560;2023-03-03T08:51:03;13.48;;;6.10;;
48375;SDS011;34178;50.904;11.560;2023-03-03T08:53:29;13.35;;;6.22;;
48375;SDS011;34178;50.904;11.560;2023-03-03T08:55:57;11.27;;;5.40;;
48375;SDS011;34178;50.904;11.560;2023-03-03T08:58:23;10.55;;;4.93;;
48375;SDS011;34178;50.904;11.560;2023-03-03T09:00:49;10.18;;;4.85;;
48375;SDS011;34178;50.904;11.560;2023-03-03T09:03:14;12.00;;;5.13;;
48375;SDS011;34178;50.904;11.560;2023-03-03T09:05:40;11.27;;;4.95;;
48375;SDS011;34178;50.904;11.560;2023-03-03T09:08:06;9.98;;;4.45;;
48375;SDS011;34178;50.904;11.560;2023-03-03T09:10:32;10.07;;;4.85;;
48375;SDS011;34178;50.904;11.560;2023-03-03T09:13:03;10.43;;;4.88;;
48375;SDS011;34178;50.904;11.560;2023-03-03T09:15:42;9.75;;;4.72;;
48375;SDS011;34178;50.904;11.560;2023-03-03T09:20:44;11.57;;;5.20;;
48375;SDS011;34178;50.904;11.560;2023-03-03T09:23:26;10.52;;;5.45;;
48375;SDS011;34178;50.904;11.560;2023-03-03T09:28:53;11.13;;;5.22;;
48375;SDS011;34178;50.904;11.560;2023-03-03T09:31:27;11.57;;;5.20;;
48375;SDS011;34178;50.904;11.560;2023-03-03T09:34:01;11.30;;;5.32;;
48375;SDS011;34178;50.904;11.560;2023-03-03T09:36:36;12.35;;;5.70;;
48375;SDS011;34178;50.904;11.560;2023-03-03T09:39:16;14.77;;;6.68;;
48375;SDS011;34178;50.904;11.560;2023-03-03T10:06:08;12.15;;;5.65;;
48375;SDS011;34178;50.904;11.560;2023-03-03T10:20:44;11.35;;;5.20;;
48375;SDS011;34178;50.904;11.560;2023-03-03T10:23:37;10.82;;;5.47;;
48375;SDS011;34178;50.904;11.560;2023-03-03T10:40:07;11.25;;;5.93;;
48375;SDS011;34178;50.904;11.560;2023-03-03T10:51:19;11.27;;;5.90;;
48375;SDS011;34178;50.904;11.560;2023-03-03T10:59:12;11.77;;;5.63;;
48375;SDS011;34178;50.904;11.560;2023-03-03T11:01:43;10.15;;;5.45;;
48375;SDS011;34178;50.904;11.560;2023-03-03T11:21:14;13.60;;;6.07;;
48375;SDS011;34178;50.904;11.560;2023-03-03T11:33:02;12.15;;;6.22;;
48375;SDS011;34178;50.904;11.560;2023-03-03T11:35:36;14.43;;;7.75;;
48375;SDS011;34178;50.904;11.560;2023-03-03T11:41:10;11.40;;;5.70;;
48375;SDS011;34178;50.904;11.560;2023-03-03T11:46:38;14.60;;;6.55;;
48375;SDS011;34178;50.904;11.560;2023-03-03T11:55:28;13.88;;;6.47;;
48375;SDS011;34178;50.904;11.560;2023-03-03T12:01:35;14.85;;;7.20;;
48375;SDS011;34178;50.904;11.560;2023-03-03T12:09:26;13.68;;;6.60;;
48375;SDS011;34178;50.904;11.560;2023-03-03T12:12:14;17.05;;;7.15;;
48375;SDS011;34178;50.904;11.560;2023-03-03T12:17:46;13.20;;;6.82;;
48375;SDS011;34178;50.904;11.560;2023-03-03T12:20:42;13.65;;;6.35;;
48375;SDS011;34178;50.904;11.560;2023-03-03T12:26:15;16.05;;;8.63;;
48375;SDS011;34178;50.904;11.560;2023-03-03T12:28:50;143.88;;;57.38;;
48375;SDS011;34178;50.904;11.560;2023-03-03T12:34:14;17.63;;;8.00;;
48375;SDS011;34178;50.904;11.560;2023-03-03T12:37:02;15.65;;;7.25;;
48375;SDS011;34178;50.904;11.560;2023-03-03T12:39:55;14.60;;;6.82;;
48375;SDS011;34178;50.904;11.560;2023-03-03T12:45:55;17.63;;;7.00;;
48375;SDS011;34178;50.904;11.560;2023-03-03T12:48:42;18.92;;;7.40;;
48375;SDS011;34178;50.904;11.560;2023-03-03T13:07:37;13.13;;;6.82;;
48375;SDS011;34178;50.904;11.560;2023-03-03T13:13:05;16.52;;;7.68;;
48375;SDS011;34178;50.904;11.560;2023-03-03T13:24:09;23.58;;;9.43;;
48375;SDS011;34178;50.904;11.560;2023-03-03T13:26:54;15.82;;;7.05;;
48375;SDS011;34178;50.904;11.560;2023-03-03T13:32:07;15.48;;;8.18;;
48375;SDS011;34178;50.904;11.560;2023-03-03T13:37:36;16.23;;;7.03;;
48375;SDS011;34178;50.904;11.560;2023-03-03T13:40:23;13.88;;;6.68;;
48375;SDS011;34178;50.904;11.560;2023-03-03T13:43:08;16.13;;;8.40;;
48375;SDS011;34178;50.904;11.560;2023-03-03T13:51:49;15.50;;;8.55;;
48375;SDS011;34178;50.904;11.560;2023-03-03T13:55:07;23.60;;;11.40;;
48375;SDS011;34178;50.904;11.560;2023-03-03T14:00:23;19.33;;;9.25;;
48375;SDS011;34178;50.904;11.560;2023-03-03T14:03:01;16.30;;;7.33;;
48375;SDS011;34178;50.904;11.560;2023-03-03T14:05:40;20.00;;;8.02;;
48375;SDS011;34178;50.904;11.560;2023-03-03T14:10:43;14.77;;;6.85;;
48375;SDS011;34178;50.904;11.560;2023-03-03T14:13:27;13.35;;;6.07;;
48375;SDS011;34178;50.904;11.560;2023-03-03T14:16:03;16.52;;;8.25;;
48375;SDS011;34178;50.904;11.560;2023-03-03T14:18:43;16.90;;;8.70;;
48375;SDS011;34178;50.904;11.560;2023-03-03T14:26:48;17.45;;;8.93;;
48375;SDS011;34178;50.904;11.560;2023-03-03T14:31:41;16.65;;;7.25;;
48375;SDS011;34178;50.904;11.560;2023-03-03T14:39:39;14.65;;;6.43;;
48375;SDS011;34178;50.904;11.560;2023-03-03T14:42:28;16.85;;;8.25;;
48375;SDS011;34178;50.904;11.560;2023-03-03T14:44:58;13.38;;;6.68;;
48375;SDS011;34178;50.904;11.560;2023-03-03T14:47:25;14.50;;;6.43;;
48375;SDS011;34178;50.904;11.560;2023-03-03T14:49:53;13.23;;;6.88;;
48375;SDS011;34178;50.904;11.560;2023-03-03T14:52:31;14.07;;;6.70;;
48375;SDS011;34178;50.904;11.560;2023-03-03T14:54:58;13.85;;;6.05;;
48375;SDS011;34178;50.904;11.560;2023-03-03T15:02:42;10.55;;;5.43;;
48375;SDS011;34178;50.904;11.560;2023-03-03T15:05:30;13.40;;;6.47;;
48375;SDS011;34178;50.904;11.560;2023-03-03T15:07:57;13.02;;;5.68;;
48375;SDS011;34178;50.904;11.560;2023-03-03T15:10:38;14.38;;;6.47;;
48375;SDS011;34178;50.904;11.560;2023-03-03T15:13:11;13.27;;;5.97;;
48375;SDS011;34178;50.904;11.560;2023-03-03T15:16:01;13.18;;;6.03;;
48375;SDS011;34178;50.904;11.560;2023-03-03T15:18:33;12.23;;;5.85;;
48375;SDS011;34178;50.904;11.560;2023-03-03T15:23:48;13.35;;;6.25;;
48375;SDS011;34178;50.904;11.560;2023-03-03T15:36:48;15.18;;;6.93;;
48375;SDS011;34178;50.904;11.560;2023-03-03T15:42:08;14.90;;;7.45;;
48375;SDS011;34178;50.904;11.560;2023-03-03T15:44:50;12.50;;;6.03;;
48375;SDS011;34178;50.904;11.560;2023-03-03T15:58:09;13.63;;;6.25;;
48375;SDS011;34178;50.904;11.560;2023-03-03T16:03:30;15.65;;;6.43;;
48375;SDS011;34178;50.904;11.560;2023-03-03T16:08:52;12.52;;;5.97;;
48375;SDS011;34178;50.904;11.560;2023-03-03T16:11:43;13.73;;;5.68;;
48375;SDS011;34178;50.904;11.560;2023-03-03T16:17:14;12.50;;;5.38;;
48375;SDS011;34178;50.904;11.560;2023-03-03T16:25:33;13.32;;;6.15;;
48375;SDS011;34178;50.904;11.560;2023-03-03T16:28:29;13.77;;;5.88;;
48375;SDS011;34178;50.904;11.560;2023-03-03T16:31:02;13.55;;;6.78;;
48375;SDS011;34178;50.904;11.560;2023-03-03T16:44:19;14.68;;;6.43;;
48375;SDS011;34178;50.904;11.560;2023-03-03T16:46:48;13.60;;;6.30;;
48375;SDS011;34178;50.904;11.560;2023-03-03T16:49:24;15.05;;;6.82;;
48375;SDS011;34178;50.904;11.560;2023-03-03T16:52:14;13.85;;;6.90;;
48375;SDS011;34178;50.904;11.560;2023-03-03T16:57:39;15.18;;;7.47;;
48375;SDS011;34178;50.904;11.560;2023-03-03T17:03:33;14.60;;;7.82;;
48375;SDS011;34178;50.904;11.560;2023-03-03T17:06:22;14.50;;;6.95;;
48375;SDS011;34178;50.904;11.560;2023-03-03T17:17:05;14.50;;;6.78;;
48375;SDS011;34178;50.904;11.560;2023-03-03T17:25:40;23.30;;;12.38;;
48375;SDS011;34178;50.904;11.560;2023-03-03T17:28:47;16.52;;;9.57;;
48375;SDS011;34178;50.904;11.560;2023-03-03T17:42:31;13.05;;;6.47;;
48375;SDS011;34178;50.904;11.560;2023-03-03T17:45:17;15.68;;;7.30;;
48375;SDS011;34178;50.904;11.560;2023-03-03T17:50:47;12.88;;;6.65;;
48375;SDS011;34178;50.904;11.560;2023-03-03T17:53:42;12.75;;;6.50;;
48375;SDS011;34178;50.904;11.560;2023-03-03T17:58:57;12.80;;;6.68;;
48375;SDS011;34178;50.904;11.560;2023-03-03T18:04:29;13.63;;;6.85;;
48375;SDS011;34178;50.904;11.560;2023-03-03T18:12:37;15.93;;;8.85;;
48375;SDS011;34178;50.904;11.560;2023-03-03T18:25:56;14.68;;;8.25;;
48375;SDS011;34178;50.904;11.560;2023-03-03T18:28:43;17.92;;;9.57;;
48375;SDS011;34178;50.904;11.560;2023-03-03T18:31:22;20.23;;;10.35;;
48375;SDS011;34178;50.904;11.560;2023-03-03T18:42:48;15.10;;;8.15;;
48375;SDS011;34178;50.904;11.560;2023-03-03T18:44:54;13.70;;;6.97;;
48375;SDS011;34178;50.904;11.560;2023-03-03T18:47:24;13.48;;;6.93;;
48375;SDS011;34178;50.904;11.560;2023-03-03T18:50:32;12.90;;;7.22;;
48375;SDS011;34178;50.904;11.560;2023-03-03T18:53:13;12.93;;;7.03;;
48375;SDS011;34178;50.904;11.560;2023-03-03T18:55:43;13.13;;;7.20;;
48375;SDS011;34178;50.904;11.560;2023-03-03T19:00:50;13.43;;;7.20;;
48375;SDS011;34178;50.904;11.560;2023-03-03T19:08:57;14.15;;;7.10;;
48375;SDS011;34178;50.904;11.560;2023-03-03T19:11:39;14.50;;;7.65;;
48375;SDS011;34178;50.904;11.560;2023-03-03T19:16:52;15.05;;;7.72;;
48375;SDS011;34178;50.904;11.560;2023-03-03T19:19:19;17.27;;;8.52;;
48375;SDS011;34178;50.904;11.560;2023-03-03T19:22:12;15.65;;;8.73;;
48375;SDS011;34178;50.904;11.560;2023-03-03T19:25:23;17.40;;;9.88;;
48375;SDS011;34178;50.904;11.560;2023-03-03T19:33:41;18.13;;;8.93;;
48375;SDS011;34178;50.904;11.560;2023-03-03T19:55:13;19.27;;;10.77;;
48375;SDS011;34178;50.904;11.560;2023-03-03T20:09:46;19.13;;;9.98;;
48375;SDS011;34178;50.904;11.560;2023-03-03T20:17:42;20.15;;;11.23;;
48375;SDS011;34178;50.904;11.560;2023-03-03T20:20:15;16.33;;;9.40;;
48375;SDS011;34178;50.904;11.560;2023-03-03T20:22:51;20.45;;;10.95;;
48375;SDS011;34178;50.904;11.560;2023-03-03T20:53:17;24.08;;;11.93;;
48375;SDS011;34178;50.904;11.560;2023-03-03T21:06:45;23.50;;;11.93;;
48375;SDS011;34178;50.904;11.560;2023-03-03T21:11:53;23.67;;;12.27;;
48375;SDS011;34178;50.904;11.560;2023-03-03T21:14:21;24.70;;;13.32;;
48375;SDS011;34178;50.904;11.560;2023-03-03T21:16:52;21.23;;;11.48;;
48375;SDS011;34178;50.904;11.560;2023-03-03T21:19:31;24.73;;;12.05;;
48375;SDS011;34178;50.904;11.560;2023-03-03T21:21:59;23.05;;;11.35;;
48375;SDS011;34178;50.904;11.560;2023-03-03T21:27:25;22.17;;;11.63;;
48375;SDS011;34178;50.904;11.560;2023-03-03T21:32:35;22.23;;;11.68;;
48375;SDS011;34178;50.904;11.560;2023-03-03T21:35:19;22.02;;;11.60;;
48375;SDS011;34178;50.904;11.560;2023-03-03T21:37:47;19.95;;;11.25;;
48375;SDS011;34178;50.904;11.560;2023-03-03T21:42:49;22.13;;;12.30;;
48375;SDS011;34178;50.904;11.560;2023-03-03T21:45:16;21.55;;;12.07;;
48375;SDS011;34178;50.904;11.560;2023-03-03T21:47:44;24.77;;;12.32;;
48375;SDS011;34178;50.904;11.560;2023-03-03T21:50:11;20.45;;;10.48;;
48375;SDS011;34178;50.904;11.560;2023-03-03T21:52:37;19.13;;;10.55;;
48375;SDS011;34178;50.904;11.560;2023-03-03T21:55:03;20.58;;;10.45;;
48375;SDS011;34178;50.904;11.560;2023-03-03T21:57:29;21.55;;;10.75;;
48375;SDS011;34178;50.904;11.560;2023-03-03T21:59:55;27.73;;;11.43;;
48375;SDS011;34178;50.904;11.560;2023-03-03T22:02:20;19.10;;;10.10;;
48375;SDS011;34178;50.904;11.560;2023-03-03T22:04:46;22.00;;;10.88;;
48375;SDS011;34178;50.904;11.560;2023-03-03T22:07:12;21.55;;;11.00;;
48375;SDS011;34178;50.904;11.560;2023-03-03T22:09:38;21.83;;;10.88;;